Terminal Aerodrome Forecast
Issued by NWS

Home | Current Version | Previous Version | Text Only | Print | Product List | Glossary On
Versions: 1 2 3 4 5 6 7 8 9 10 11 12 13 14 15 16 17 18 19 20 21 22 23 24 25 26 27 28 29 30
000
FTUS41 KCTP 290326 AAB
TAFBFD
TAF AMD
KBFD 290326Z 2903/2924 19007KT P6SM VCSH SCT012 BKN100
      TEMPO 2903/2905 1SM +TSRA BR BKN009 OVC020CB
     FM290500 22007KT 2SM -SHRA BR SCT004 OVC009
     FM291200 27010G20KT P6SM BKN025
     FM291500 28010G20KT P6SM BKN035
     FM292200 26007KT P6SM SCT030=

USA.gov is the U.S. government's official web portal to all federal, state and local government web resources and services.